Time;durP1;ratioP1;P1;durP2;ratioP2;P2;SDS_P1;SDS_P2;PMS_P1;PMS_P2;Temp;Humidity;BMP_temperature;BMP_pressure;BME280_temperature;BME280_humidity;BME280_pressure;Samples;Min_cycle;Max_cycle;Signal;HPM_P1;HPM_P2
2021/08/20 00:00:30;;;;;;;10.07;3.70;;;;;;;16.72;100.00;95925.72;1040174;28;20067;-73
2021/08/20 00:01:00;;;;;;;9.63;3.90;;;;;;;16.70;100.00;95917.94;1028106;28;20015;-73
2021/08/20 00:01:30;;;;;;;5.70;3.50;;;;;;;16.71;100.00;95918.72;1024182;29;20015;-72
2021/08/20 00:02:01;;;;;;;6.20;3.80;;;;;;;16.70;100.00;95911.75;1024171;28;20023;-73
2021/08/20 00:02:31;;;;;;;8.67;3.37;;;;;;;16.69;100.00;95908.25;1036133;28;20029;-73
2021/08/20 00:03:02;;;;;;;9.03;4.00;;;;;;;16.67;100.00;95918.53;1027995;28;20072;-73
2021/08/20 00:03:33;;;;;;;4.60;3.30;;;;;;;16.68;100.00;95914.72;1036114;28;20022;-73
2021/08/20 00:04:03;;;;;;;5.67;3.53;;;;;;;16.71;100.00;95921.41;1036287;28;20519;-73
2021/08/20 00:04:34;;;;;;;7.43;3.60;;;;;;;16.71;100.00;95919.53;1036136;28;20033;-73
2021/08/20 00:05:05;;;;;;;6.13;3.57;;;;;;;16.70;100.00;95915.22;1036233;28;20085;-73
2021/08/20 00:05:35;;;;;;;5.83;3.67;;;;;;;16.70;100.00;95909.03;1032207;28;20459;-73
2021/08/20 00:06:06;;;;;;;8.20;3.90;;;;;;;16.69;100.00;95915.53;1028070;28;20347;-73
2021/08/20 00:06:36;;;;;;;7.10;3.77;;;;;;;16.67;100.00;95912.34;1032081;28;20559;-73
2021/08/20 00:07:07;;;;;;;7.00;3.73;;;;;;;16.67;100.00;95912.34;1036235;28;20030;-73
2021/08/20 00:07:37;;;;;;;6.07;3.50;;;;;;;16.69;100.00;95915.53;1036393;28;20022;-73
2021/08/20 00:08:07;;;;;;;7.23;3.87;;;;;;;16.68;100.00;95908.53;1040436;28;20037;-73
2021/08/20 00:08:38;;;;;;;5.57;3.90;;;;;;;16.69;100.00;95910.16;1040285;28;20018;-73
2021/08/20 00:09:09;;;;;;;5.57;3.60;;;;;;;16.69;100.00;95910.94;1040362;28;20470;-73
2021/08/20 00:09:40;;;;;;;7.43;3.47;;;;;;;16.70;100.00;95917.94;1040258;28;20433;-73
2021/08/20 00:10:10;;;;;;;7.07;3.40;;;;;;;16.73;100.00;95913.81;1036424;28;20057;-73
2021/08/20 00:10:41;;;;;;;7.87;3.73;;;;;;;16.73;100.00;95920.00;1036299;28;20021;-73
2021/08/20 00:11:11;;;;;;;7.33;3.30;;;;;;;16.75;100.00;95911.63;1036193;28;20026;-73
2021/08/20 00:11:42;;;;;;;8.33;3.40;;;;;;;16.76;100.00;95910.53;1032167;28;20018;-73
2021/08/20 00:12:12;;;;;;;9.10;4.30;;;;;;;16.77;100.00;95915.59;1036210;28;20402;-73
2021/08/20 00:12:42;;;;;;;5.10;3.10;;;;;;;16.79;100.00;95913.41;1040178;28;20417;-73
2021/08/20 00:13:13;;;;;;;6.77;3.43;;;;;;;16.81;100.00;95913.06;1044482;28;20025;-73
2021/08/20 00:13:43;;;;;;;6.50;3.43;;;;;;;16.85;100.00;95914.06;1044695;28;20032;-72
2021/08/20 00:14:16;;;;;;;6.37;3.77;;;;;;;16.87;100.00;95912.63;1044419;28;20021;-73
2021/08/20 00:14:47;;;;;;;6.53;3.45;;;;;;;16.91;100.00;95917.41;1044395;28;20021;-73
2021/08/20 00:15:17;;;;;;;5.47;3.47;;;;;;;16.92;100.00;95916.28;1044463;28;20033;-73
2021/08/20 00:15:47;;;;;;;7.50;3.57;;;;;;;16.94;100.00;95914.88;1044401;28;20025;-73
2021/08/20 00:16:18;;;;;;;8.60;3.43;;;;;;;16.95;100.00;95913.78;1044775;28;20017;-73
2021/08/20 00:16:48;;;;;;;5.73;3.30;;;;;;;16.97;100.00;95916.16;1044279;28;20476;-73
2021/08/20 00:17:19;;;;;;;6.53;3.47;;;;;;;16.99;100.00;95913.94;1044317;28;20040;-74
2021/08/20 00:17:49;;;;;;;5.47;3.00;;;;;;;16.99;100.00;95912.03;1044383;28;20044;-73
2021/08/20 00:18:20;;;;;;;6.10;3.67;;;;;;;17.02;100.00;95922.22;1044370;28;20044;-73
2021/08/20 00:18:50;;;;;;;5.60;3.00;;;;;;;17.03;100.00;95906.81;1044410;28;20044;-73
2021/08/20 00:19:20;;;;;;;4.80;2.80;;;;;;;17.03;100.00;95910.28;1044421;28;20470;-73
2021/08/20 00:19:51;;;;;;;6.60;3.17;;;;;;;17.06;100.00;95917.00;1044370;28;20398;-73
2021/08/20 00:20:21;;;;;;;6.37;3.10;;;;;;;17.06;100.00;95911.59;1044720;28;20466;-73
2021/08/20 00:20:52;;;;;;;4.57;3.10;;;;;;;17.06;100.00;95909.69;1044333;28;20489;-73
2021/08/20 00:21:22;;;;;;;7.57;3.07;;;;;;;17.08;100.00;95910.16;1044411;28;20394;-73
2021/08/20 00:21:53;;;;;;;6.43;2.97;;;;;;;17.09;100.00;95909.03;1044412;28;20037;-73
2021/08/20 00:22:23;;;;;;;6.00;3.00;;;;;;;17.11;100.00;95911.44;1044463;28;20028;-73
2021/08/20 00:22:54;;;;;;;5.73;3.33;;;;;;;17.10;100.00;95910.66;1044303;28;20494;-73
2021/08/20 00:23:24;;;;;;;5.00;3.37;;;;;;;17.13;100.00;95910.00;1044491;28;20025;-73
2021/08/20 00:23:54;;;;;;;6.50;3.40;;;;;;;17.13;100.00;95915.41;1044371;28;20057;-73
2021/08/20 00:24:25;;;;;;;5.20;3.03;;;;;;;17.15;100.00;95910.50;1044349;28;20073;-73
2021/08/20 00:24:55;;;;;;;5.73;3.70;;;;;;;17.17;100.00;95912.88;1040205;28;20559;-73
2021/08/20 00:25:26;;;;;;;5.00;3.10;;;;;;;17.17;100.00;95910.19;1040297;28;20062;-73
2021/08/20 00:25:56;;;;;;;6.17;3.17;;;;;;;17.17;100.00;95910.19;1044274;28;20021;-73
2021/08/20 00:26:26;;;;;;;6.53;3.30;;;;;;;17.21;100.00;95913.06;1044374;28;20555;-73
2021/08/20 00:26:57;;;;;;;4.77;3.33;;;;;;;17.20;100.00;95908.75;1044278;28;20050;-73
2021/08/20 00:27:27;;;;;;;5.37;3.33;;;;;;;17.21;100.00;95910.38;1044292;28;20075;-74
2021/08/20 00:27:58;;;;;;;5.10;3.33;;;;;;;17.23;100.00;95905.44;1044329;28;20115;-73
2021/08/20 00:28:28;;;;;;;6.33;3.60;;;;;;;17.17;100.00;95907.50;1040295;28;20075;-73
2021/08/20 00:28:59;;;;;;;6.93;3.30;;;;;;;17.17;100.00;95907.50;1044276;28;20029;-73
2021/08/20 00:29:29;;;;;;;7.07;3.70;;;;;;;17.13;100.00;95910.00;1040182;28;20120;-73
2021/08/20 00:30:00;;;;;;;6.20;3.43;;;;;;;17.10;100.00;95902.56;1040296;28;20482;-73
2021/08/20 00:30:30;;;;;;;10.40;4.10;;;;;;;17.10;100.00;95907.94;1044348;28;20539;-73
2021/08/20 00:31:01;;;;;;;6.63;4.07;;;;;;;17.06;100.00;95906.19;1040185;28;20013;-73
2021/08/20 00:31:31;;;;;;;7.30;3.90;;;;;;;17.08;100.00;95902.06;1044427;28;20482;-73
2021/08/20 00:32:02;;;;;;;6.90;3.70;;;;;;;17.09;100.00;95900.16;1044262;28;20045;-73
2021/08/20 00:32:32;;;;;;;4.87;3.37;;;;;;;17.09;100.00;95902.84;1044264;28;20025;-73
2021/08/20 00:33:03;;;;;;;6.23;3.70;;;;;;;17.07;100.00;95905.88;1044242;28;20029;-73
2021/08/20 00:33:35;;;;;;;7.10;4.13;;;;;;;17.07;100.00;95900.47;1044344;28;20433;-73
2021/08/20 00:34:05;;;;;;;8.40;4.20;;;;;;;17.07;100.00;95903.16;1044297;28;20025;-73
2021/08/20 00:34:35;;;;;;;9.50;3.97;;;;;;;17.05;100.00;95900.00;1040208;28;20075;-73
2021/08/20 00:35:06;;;;;;;6.67;3.50;;;;;;;17.04;100.00;95901.09;1035965;28;20030;-73
2021/08/20 00:35:37;;;;;;;6.47;3.87;;;;;;;17.01;100.00;95898.22;1036457;28;20025;-73
2021/08/20 00:36:07;;;;;;;7.07;3.93;;;;;;;17.03;100.00;95902.19;1036218;28;20018;-73
2021/08/20 00:36:38;;;;;;;10.37;4.27;;;;;;;17.00;100.00;95897.44;1040365;28;20028;-73
2021/08/20 00:37:08;;;;;;;9.33;4.57;;;;;;;17.03;100.00;95899.50;1044300;28;20404;-73
2021/08/20 00:37:39;;;;;;;6.83;4.07;;;;;;;17.05;100.00;95899.19;1040188;28;20104;-73
2021/08/20 00:38:09;;;;;;;5.53;3.60;;;;;;;17.06;100.00;95904.28;1044366;28;20020;-73
2021/08/20 00:38:39;;;;;;;6.50;3.80;;;;;;;17.08;100.00;95902.06;1044324;28;20021;-73
2021/08/20 00:39:10;;;;;;;7.47;4.23;;;;;;;17.09;100.00;95903.63;1044317;28;20159;-73
2021/08/20 00:39:42;;;;;;;6.03;3.93;;;;;;;17.12;100.00;95903.03;1044635;28;20017;-73
2021/08/20 00:40:12;;;;;;;6.25;3.63;;;;;;;17.14;100.00;95903.50;1044323;28;20096;-73
2021/08/20 00:40:43;;;;;;;6.50;3.80;;;;;;;17.17;100.00;95904.78;1040146;28;20502;-73
2021/08/20 00:41:13;;;;;;;6.53;3.37;;;;;;;17.18;100.00;95906.38;1040144;28;20040;-73
2021/08/20 00:41:44;;;;;;;13.47;3.90;;;;;;;17.19;100.00;95907.16;1044486;28;20536;-73
2021/08/20 00:42:14;;;;;;;6.63;3.80;;;;;;;17.20;100.00;95904.16;1044297;28;20020;-73
2021/08/20 00:42:45;;;;;;;8.10;3.40;;;;;;;17.21;100.00;95903.06;1044230;28;20009;-73
2021/08/20 00:43:16;;;;;;;5.15;3.25;;;;;;;17.22;100.00;95901.16;1044138;28;20426;-73
2021/08/20 00:43:46;;;;;;;5.37;3.47;;;;;;;17.23;100.00;95903.53;1044431;28;20021;-73
2021/08/20 00:44:17;;;;;;;7.90;3.73;;;;;;;17.22;100.00;95906.53;1048532;28;20318;-73
2021/08/20 00:44:48;;;;;;;6.45;3.83;;;;;;;17.22;100.00;95898.44;1048243;28;20046;-73
2021/08/20 00:45:18;;;;;;;5.20;3.40;;;;;;;17.21;100.00;95910.38;1048266;28;20024;-73
2021/08/20 00:45:53;;;;;;;6.97;3.60;;;;;;;17.21;100.00;95913.06;1044264;28;20454;-73
2021/08/20 00:46:23;;;;;;;5.35;3.58;;;;;;;17.21;100.00;95900.34;1040828;28;20025;-73
2021/08/20 00:46:54;;;;;;;5.57;3.50;;;;;;;17.25;100.00;95900.50;1044267;28;20025;-73
2021/08/20 00:47:24;;;;;;;4.83;3.27;;;;;;;17.25;100.00;95911.31;1044313;28;20021;-73
2021/08/20 00:47:55;;;;;;;5.97;3.10;;;;;;;17.25;100.00;95914.81;1044236;28;20036;-73
2021/08/20 00:48:25;;;;;;;6.43;3.40;;;;;;;17.29;100.00;95906.88;1044590;28;20032;-73
2021/08/20 00:48:55;;;;;;;6.53;3.50;;;;;;;17.29;100.00;95906.88;1044593;28;20367;-73
2021/08/20 00:49:26;;;;;;;6.87;3.37;;;;;;;17.28;100.00;95910.69;1044309;28;20386;-73
2021/08/20 00:49:56;;;;;;;6.57;3.50;;;;;;;17.25;100.00;95908.59;1040043;28;20128;-73
2021/08/20 00:50:27;;;;;;;7.93;3.77;;;;;;;17.25;100.00;95908.59;1040163;28;20029;-73
2021/08/20 00:51:08;;;;;;;7.63;3.50;;;;;;;17.20;100.00;95901.47;1040171;28;20048;-73
2021/08/20 00:51:39;;;;;;;7.75;3.85;;;;;;;17.17;100.00;95910.19;1041615;28;20441;-73
2021/08/20 00:52:09;;;;;;;6.83;3.60;;;;;;;17.15;100.00;95907.00;1044210;28;20071;-73
2021/08/20 00:52:40;;;;;;;8.27;4.00;;;;;;;17.12;100.00;95910.31;1044142;28;20017;-73
2021/08/20 00:53:10;;;;;;;9.47;4.60;;;;;;;17.11;100.00;95911.44;1040259;28;20025;-73
2021/08/20 00:53:41;;;;;;;8.23;3.83;;;;;;;17.11;100.00;95906.03;1036065;28;20471;-73
2021/08/20 00:54:12;;;;;;;6.87;4.17;;;;;;;17.09;100.00;95909.03;1036047;28;20030;-73
2021/08/20 00:54:42;;;;;;;6.63;3.85;;;;;;;17.09;100.00;95911.75;1040284;28;20014;-73
2021/08/20 00:55:14;;;;;;;9.60;3.70;;;;;;;17.10;100.00;95904.47;1040186;28;20022;-73
2021/08/20 00:55:45;;;;;;;7.88;3.90;;;;;;;17.07;100.00;95915.88;1040466;28;20035;-73
2021/08/20 00:56:16;;;;;;;6.50;3.80;;;;;;;17.04;100.00;95914.56;1043818;28;20057;-73
2021/08/20 00:56:46;;;;;;;7.23;3.97;;;;;;;17.04;100.00;95906.47;1036767;28;20575;-73
2021/08/20 00:57:16;;;;;;;9.07;4.00;;;;;;;17.01;100.00;95906.34;1040210;28;20020;-73
2021/08/20 00:57:48;;;;;;;6.77;3.40;;;;;;;16.99;100.00;95911.22;1035967;28;20022;-73
2021/08/20 00:58:18;;;;;;;5.45;3.60;;;;;;;16.97;100.00;95913.47;1032088;28;20026;-73
2021/08/20 00:58:49;;;;;;;7.53;3.53;;;;;;;16.95;100.00;95913.00;1036216;28;20034;-73
2021/08/20 00:59:19;;;;;;;8.77;3.60;;;;;;;16.93;100.00;95907.09;1040294;28;20029;-73
2021/08/20 00:59:49;;;;;;;7.03;3.50;;;;;;;16.92;100.00;95914.38;1036087;28;20029;-73
2021/08/20 01:00:21;;;;;;;6.37;3.30;;;;;;;16.88;100.00;95908.00;1031798;28;20034;-73
2021/08/20 01:00:51;;;;;;;5.78;3.30;;;;;;;16.86;100.00;95911.03;1027721;28;20039;-73
2021/08/20 01:01:22;;;;;;;8.03;3.40;;;;;;;16.83;100.00;95910.84;1036220;28;20026;-73
2021/08/20 01:01:52;;;;;;;5.67;3.50;;;;;;;16.82;100.00;95911.97;1040382;28;20021;-73
2021/08/20 01:02:22;;;;;;;5.33;3.10;;;;;;;16.73;100.00;95911.91;1048428;28;20020;-73
2021/08/20 01:02:53;;;;;;;6.87;3.50;;;;;;;16.74;100.00;95910.03;1052493;28;20031;-73
2021/08/20 01:03:27;;;;;;;6.37;3.50;;;;;;;16.75;100.00;95908.94;1044191;28;20035;-73
2021/08/20 01:03:57;;;;;;;5.53;3.30;;;;;;;16.78;100.00;95911.78;1044268;28;20032;-73
2021/08/20 01:04:28;;;;;;;8.33;3.40;;;;;;;16.79;100.00;95912.59;1044117;28;20535;-73
2021/08/20 01:04:58;;;;;;;8.07;4.40;;;;;;;16.80;100.00;95908.78;1044349;28;20104;-73
2021/08/20 01:05:28;;;;;;;7.53;3.37;;;;;;;16.79;100.00;95912.59;1044140;28;20009;-73
2021/08/20 01:05:59;;;;;;;6.07;3.10;;;;;;;16.79;100.00;95915.31;1040012;28;20049;-74
2021/08/20 01:06:30;;;;;;;5.47;3.10;;;;;;;16.77;100.00;95909.41;1035900;28;20014;-73
2021/08/20 01:07:02;;;;;;;7.57;3.20;;;;;;;16.78;100.00;95909.09;1032139;28;20476;-74
2021/08/20 01:07:37;;;;;;;5.80;3.50;;;;;;;16.76;100.00;95907.81;1036295;28;20073;-74
2021/08/20 01:08:07;;;;;;;6.60;3.38;;;;;;;16.74;100.00;95912.75;1041075;28;20029;-74
2021/08/20 01:08:38;;;;;;;7.93;3.40;;;;;;;16.73;100.00;95905.72;1044758;28;20025;-74
2021/08/20 01:09:09;;;;;;;6.30;3.50;;;;;;;16.70;100.00;95909.81;1044634;28;20017;-73
2021/08/20 01:09:40;;;;;;;7.63;4.07;;;;;;;16.67;100.00;95907.75;1035957;28;20017;-74
2021/08/20 01:10:12;;;;;;;9.10;3.72;;;;;;;16.71;100.00;95907.94;1028005;28;20078;-74
2021/08/20 01:10:43;;;;;;;6.40;3.40;;;;;;;16.70;100.00;95911.75;1027950;28;20407;-74
2021/08/20 01:11:13;;;;;;;6.83;3.40;;;;;;;16.68;100.00;95909.31;1033204;28;20026;-73
2021/08/20 01:11:44;;;;;;;8.87;3.33;;;;;;;16.71;100.00;95918.72;1044888;28;20017;-74
2021/08/20 01:12:14;;;;;;;7.70;3.50;;;;;;;16.73;100.00;95908.44;1052582;28;20058;-74
2021/08/20 01:12:45;;;;;;;5.77;3.23;;;;;;;16.75;100.00;95911.63;1052382;28;20020;-73
2021/08/20 01:13:16;;;;;;;8.17;3.40;;;;;;;16.76;100.00;95907.81;1044459;28;20013;-73
2021/08/20 01:13:47;;;;;;;5.10;3.42;;;;;;;16.77;100.00;95909.41;1044284;28;20017;-74
2021/08/20 01:14:30;;;;;;;6.53;3.40;;;;;;;16.71;100.00;95907.94;1044192;28;20024;-74
2021/08/20 01:15:00;;;;;;;6.10;3.45;;;;;;;16.70;100.00;95904.44;1044104;28;20096;-74
2021/08/20 01:15:30;;;;;;;6.13;3.30;;;;;;;16.68;100.00;95909.31;1040019;28;20455;-72
2021/08/20 01:16:01;;;;;;;7.67;3.33;;;;;;;16.65;100.00;95899.19;1039999;28;20021;-73
2021/08/20 01:16:32;;;;;;;5.57;3.30;;;;;;;16.65;100.00;95899.19;1040074;28;20025;-71
2021/08/20 01:17:07;;;;;;;5.10;3.30;;;;;;;16.65;100.00;95904.56;1044135;28;20422;-73
2021/08/20 01:17:37;;;;;;;11.07;3.88;;;;;;;16.64;100.00;95898.38;1043893;28;20020;-72
2021/08/20 01:18:07;;;;;;;6.10;3.50;;;;;;;16.63;100.00;95907.59;1044117;28;20028;-71
2021/08/20 01:18:39;;;;;;;5.37;3.63;;;;;;;16.61;100.00;95901.69;1040654;28;20018;-71
2021/08/20 01:19:09;;;;;;;6.68;3.63;;;;;;;16.53;100.00;95896.25;1044048;28;20021;-72
2021/08/20 01:19:40;;;;;;;5.77;3.70;;;;;;;16.50;100.00;95892.28;1044083;28;20470;-73
2021/08/20 01:20:11;;;;;;;4.57;3.10;;;;;;;16.52;100.00;95898.16;1040208;28;20021;-72
2021/08/20 01:20:41;;;;;;;7.53;3.58;;;;;;;16.49;100.00;95890.69;1044062;28;20050;-72
2021/08/20 01:21:14;;;;;;;7.40;3.63;;;;;;;16.46;100.00;95896.69;1044056;28;20418;-73
2021/08/20 01:21:44;;;;;;;6.57;3.80;;;;;;;16.46;100.00;95899.38;1044090;28;20103;-73
2021/08/20 01:22:15;;;;;;;5.87;3.57;;;;;;;16.47;100.00;95886.69;1052407;28;20020;-72
2021/08/20 01:22:45;;;;;;;6.17;3.70;;;;;;;16.48;100.00;95897.19;1043998;28;20024;-72
2021/08/20 01:23:19;;;;;;;6.27;3.50;;;;;;;16.49;100.00;95895.28;1044006;28;20025;-72
2021/08/20 01:23:56;;;;;;;7.95;3.70;;;;;;;16.50;100.00;95897.66;1043572;28;20407;-73
2021/08/20 01:24:27;;;;;;;9.15;3.95;;;;;;;16.49;100.00;95896.09;1041288;28;20052;-73
2021/08/20 01:25:01;;;;;;;7.68;3.55;;;;;;;16.50;100.00;95899.56;1039922;28;20029;-72
2021/08/20 01:25:34;;;;;;;8.27;3.75;;;;;;;16.49;100.00;95896.09;1041455;28;20014;-72
2021/08/20 01:26:04;;;;;;;5.97;3.40;;;;;;;16.54;100.00;95904.03;1044074;28;20025;-73
2021/08/20 01:26:35;;;;;;;9.93;4.00;;;;;;;16.57;100.00;95897.22;1044054;28;20378;-73
2021/08/20 01:27:05;;;;;;;7.60;3.50;;;;;;;16.55;100.00;95899.44;1044010;28;20016;-73
2021/08/20 01:27:36;;;;;;;6.53;3.53;;;;;;;16.56;100.00;95898.34;1040355;28;20394;-73
2021/08/20 01:28:07;;;;;;;5.40;3.37;;;;;;;16.59;100.00;95897.72;1039929;28;20407;-73
2021/08/20 01:28:37;;;;;;;6.28;3.58;;;;;;;16.60;100.00;95897.41;1035893;28;20472;-73
2021/08/20 01:29:08;;;;;;;7.67;3.67;;;;;;;16.64;100.00;95901.06;1035981;28;20022;-73
2021/08/20 01:29:38;;;;;;;6.13;2.90;;;;;;;16.66;100.00;95899.97;1040034;28;20028;-73
2021/08/20 01:30:09;;;;;;;8.07;3.80;;;;;;;16.65;100.00;95899.19;1044024;28;20067;-73
2021/08/20 01:30:40;;;;;;;6.68;3.08;;;;;;;16.67;100.00;95896.16;1044032;28;20021;-73
2021/08/20 01:31:12;;;;;;;5.97;3.60;;;;;;;16.67;100.00;95890.75;1044055;28;20378;-73
2021/08/20 01:31:45;;;;;;;6.57;3.20;;;;;;;16.67;100.00;95896.16;1048107;28;20126;-73
2021/08/20 01:32:16;;;;;;;6.78;3.38;;;;;;;16.69;100.00;95885.88;1044731;28;20079;-73
2021/08/20 01:32:46;;;;;;;5.07;3.30;;;;;;;16.70;100.00;95892.84;1048130;28;20025;-73
2021/08/20 01:33:17;;;;;;;5.23;3.30;;;;;;;16.67;100.00;95890.75;1047700;28;20036;-73
2021/08/20 01:33:48;;;;;;;7.20;3.90;;;;;;;16.69;100.00;95893.97;1043999;28;20107;-73
2021/08/20 01:34:18;;;;;;;6.47;3.07;;;;;;;16.68;100.00;95893.13;1044380;28;20358;-73
2021/08/20 01:34:49;;;;;;;6.30;3.77;;;;;;;16.66;100.00;95894.56;1043964;28;20478;-73
2021/08/20 01:35:19;;;;;;;5.43;3.50;;;;;;;16.63;100.00;95891.41;1044122;28;20025;-73
2021/08/20 01:35:50;;;;;;;7.13;3.90;;;;;;;16.60;100.00;95886.63;1039738;28;20090;-72
2021/08/20 01:36:21;;;;;;;5.80;3.40;;;;;;;16.56;100.00;95891.03;1040054;28;20013;-73
2021/08/20 01:36:51;;;;;;;7.75;4.05;;;;;;;16.53;100.00;95891.66;1039865;28;20045;-73
2021/08/20 01:37:22;;;;;;;9.80;3.73;;;;;;;16.53;100.00;95898.94;1040029;28;20056;-73
2021/08/20 01:37:52;;;;;;;6.23;3.40;;;;;;;16.51;100.00;95893.06;1043991;28;20174;-73
2021/08/20 01:38:23;;;;;;;5.77;3.90;;;;;;;16.48;100.00;95893.69;1044059;28;20025;-73
2021/08/20 01:38:55;;;;;;;8.17;3.73;;;;;;;16.44;100.00;95888.13;1043979;28;20112;-73
2021/08/20 01:39:25;;;;;;;8.10;3.85;;;;;;;16.43;100.00;95889.22;1039955;28;20415;-73
2021/08/20 01:39:56;;;;;;;6.63;3.70;;;;;;;16.44;100.00;95890.03;1035664;28;20124;-73
2021/08/20 01:40:26;;;;;;;7.80;3.33;;;;;;;16.43;100.00;95889.22;1036093;28;20072;-73
2021/08/20 01:40:57;;;;;;;8.57;4.33;;;;;;;16.41;100.00;95891.44;1039812;28;20163;-73
2021/08/20 01:41:27;;;;;;;9.17;4.53;;;;;;;16.40;100.00;95884.44;1044098;28;20025;-73
2021/08/20 01:41:58;;;;;;;9.13;4.27;;;;;;;16.39;100.00;95888.25;1039825;28;20029;-73
2021/08/20 01:42:28;;;;;;;6.33;3.80;;;;;;;16.37;100.00;95885.06;1039977;28;20418;-73
2021/08/20 01:43:04;;;;;;;6.60;3.97;;;;;;;16.34;100.00;95883.00;1039866;28;20037;-73
2021/08/20 01:43:34;;;;;;;5.47;3.77;;;;;;;16.33;100.00;95886.81;1040651;28;20025;-73
2021/08/20 01:44:04;;;;;;;6.27;3.80;;;;;;;16.30;100.00;95887.41;1043983;28;20033;-73
2021/08/20 01:44:35;;;;;;;5.57;3.40;;;;;;;16.29;100.00;95883.13;1043949;28;20021;-73
2021/08/20 01:45:06;;;;;;;6.30;3.83;;;;;;;16.27;100.00;95890.72;1044375;28;20425;-73
2021/08/20 01:45:37;;;;;;;10.43;4.20;;;;;;;16.22;100.00;95886.22;1044003;28;20035;-73
2021/08/20 01:46:07;;;;;;;6.15;3.67;;;;;;;16.19;100.00;95886.88;1043942;28;20037;-73
2021/08/20 01:46:38;;;;;;;8.13;3.60;;;;;;;16.19;100.00;95899.56;1039850;28;20076;-73
2021/08/20 01:47:11;;;;;;;5.70;3.67;;;;;;;16.16;100.00;95883.97;1039983;28;20034;-72
2021/08/20 01:47:42;;;;;;;5.40;3.40;;;;;;;16.14;100.00;95888.91;1031762;28;20032;-72
2021/08/20 01:48:12;;;;;;;7.63;4.27;;;;;;;16.13;100.00;95881.91;1032782;28;20494;-72
2021/08/20 01:48:46;;;;;;;8.20;4.30;;;;;;;16.13;100.00;95885.41;1035785;28;20029;-72
2021/08/20 01:49:17;;;;;;;8.43;3.88;;;;;;;16.12;100.00;95881.09;1032909;28;20026;-72
2021/08/20 01:49:47;;;;;;;11.03;4.20;;;;;;;16.11;100.00;95888.38;1035752;28;20364;-72
2021/08/20 01:50:18;;;;;;;6.97;3.87;;;;;;;16.11;100.00;95882.19;1032264;28;20069;-72
2021/08/20 01:50:48;;;;;;;6.03;3.80;;;;;;;16.14;100.00;95887.00;1031842;28;20065;-73
2021/08/20 01:51:22;;;;;;;6.40;4.50;;;;;;;16.13;100.00;95884.63;1035922;28;20018;-72
2021/08/20 01:51:53;;;;;;;5.68;3.75;;;;;;;16.14;100.00;95880.81;1036372;28;20057;-73
2021/08/20 01:52:23;;;;;;;6.47;4.00;;;;;;;16.14;100.00;95888.91;1040279;28;20113;-72
2021/08/20 01:52:54;;;;;;;9.60;4.07;;;;;;;16.14;100.00;95880.81;1043913;28;20419;-72
2021/08/20 01:53:24;;;;;;;7.33;4.40;;;;;;;16.14;100.00;95883.50;1044122;28;20043;-73
2021/08/20 01:53:55;;;;;;;6.57;4.40;;;;;;;16.16;100.00;95883.97;1044237;28;20098;-72
2021/08/20 01:54:26;;;;;;;7.80;4.10;;;;;;;16.15;100.00;95880.50;1044018;28;20021;-73
2021/08/20 01:54:56;;;;;;;6.30;3.90;;;;;;;16.19;100.00;95881.47;1039802;28;20014;-72
2021/08/20 01:55:27;;;;;;;8.13;4.37;;;;;;;16.21;100.00;95875.75;1039918;28;20018;-72
2021/08/20 01:55:57;;;;;;;6.87;3.70;;;;;;;16.22;100.00;95880.03;1035850;28;20472;-73
2021/08/20 01:56:29;;;;;;;8.17;3.67;;;;;;;16.24;100.00;95877.84;1039876;28;20029;-72
2021/08/20 01:57:00;;;;;;;9.13;4.00;;;;;;;16.24;100.00;95880.56;1035677;28;20018;-73
2021/08/20 01:57:30;;;;;;;7.07;4.23;;;;;;;16.23;100.00;95884.38;1036199;28;20029;-72
2021/08/20 01:58:02;;;;;;;6.77;4.23;;;;;;;16.24;100.00;95877.84;1035699;28;20030;-72
2021/08/20 01:58:32;;;;;;;7.20;4.13;;;;;;;16.24;100.00;95875.16;1035906;28;20022;-72
2021/08/20 01:59:02;;;;;;;6.70;3.93;;;;;;;16.26;100.00;95875.63;1040009;28;20022;-72
2021/08/20 01:59:33;;;;;;;7.60;3.90;;;;;;;16.26;100.00;95884.53;1040086;28;20471;-72
2021/08/20 02:00:05;;;;;;;6.47;3.70;;;;;;;16.27;100.00;95886.09;1039820;28;20045;-72
2021/08/20 02:00:35;;;;;;;10.18;3.90;;;;;;;16.26;100.00;95883.72;1039813;28;20516;-72
2021/08/20 02:01:05;;;;;;;11.40;4.50;;;;;;;16.25;100.00;95885.63;1040139;28;20009;-73
2021/08/20 02:01:36;;;;;;;8.07;4.50;;;;;;;16.26;100.00;95883.72;1043953;28;20029;-72
2021/08/20 02:02:06;;;;;;;10.47;4.10;;;;;;;16.24;100.00;95889.44;1044337;28;20025;-72
2021/08/20 02:02:37;;;;;;;7.77;4.07;;;;;;;16.23;100.00;95881.66;1044242;28;20063;-72
2021/08/20 02:03:08;;;;;;;6.87;3.50;;;;;;;16.22;100.00;95890.84;1043982;28;20016;-72
2021/08/20 02:03:38;;;;;;;6.30;3.58;;;;;;;16.23;100.00;95893.25;1043991;28;20032;-72
2021/08/20 02:04:09;;;;;;;5.80;3.70;;;;;;;16.22;100.00;95885.44;1043917;28;20100;-72
2021/08/20 02:04:39;;;;;;;8.10;3.90;;;;;;;16.21;100.00;95891.94;1043855;28;20469;-72
2021/08/20 02:05:10;;;;;;;6.53;4.00;;;;;;;16.18;100.00;95889.88;1043929;28;20013;-71
2021/08/20 02:05:40;;;;;;;6.90;4.03;;;;;;;16.17;100.00;95889.06;1039883;28;20071;-72
2021/08/20 02:06:11;;;;;;;8.60;3.93;;;;;;;16.13;100.00;95890.81;1043929;28;20021;-72
2021/08/20 02:06:41;;;;;;;9.27;4.53;;;;;;;16.11;100.00;95885.69;1043944;28;20076;-72
2021/08/20 02:07:12;;;;;;;8.33;3.97;;;;;;;16.11;100.00;95890.28;1043902;28;20450;-73
2021/08/20 02:07:42;;;;;;;6.87;3.57;;;;;;;16.08;100.00;95893.63;1044277;28;20406;-73
2021/08/20 02:08:13;;;;;;;12.07;4.20;;;;;;;16.06;100.00;95888.50;1044211;28;20386;-72
2021/08/20 02:08:43;;;;;;;6.50;4.27;;;;;;;16.08;100.00;95897.09;1044218;28;20079;-72
2021/08/20 02:09:13;;;;;;;7.33;4.57;;;;;;;16.08;100.00;95893.63;1044282;28;20021;-73
2021/08/20 02:09:47;;;;;;;14.00;4.67;;;;;;;16.06;100.00;95893.13;1044261;28;20379;-73
2021/08/20 02:10:17;;;;;;;10.82;5.30;;;;;;;16.05;100.00;95896.91;1044242;28;20048;-72
2021/08/20 02:10:48;;;;;;;9.03;4.93;;;;;;;16.05;100.00;95889.63;1043936;28;20013;-72
2021/08/20 02:11:18;;;;;;;10.27;4.80;;;;;;;16.07;100.00;95895.53;1043925;28;20014;-72
2021/08/20 02:11:50;;;;;;;7.53;5.00;;;;;;;16.06;100.00;95896.59;1043931;28;20017;-72
2021/08/20 02:12:21;;;;;;;7.68;5.13;;;;;;;16.07;100.00;95889.31;1043938;28;20028;-72
2021/08/20 02:12:51;;;;;;;7.30;4.67;;;;;;;16.09;100.00;95896.00;1044868;28;20037;-72
2021/08/20 02:13:22;;;;;;;8.00;4.73;;;;;;;16.10;100.00;95896.78;1045135;28;20028;-72
2021/08/20 02:13:52;;;;;;;7.43;4.43;;;;;;;16.11;100.00;95901.06;1045079;28;20124;-72
2021/08/20 02:14:23;;;;;;;7.20;4.80;;;;;;;16.14;100.00;95894.28;1045108;28;20020;-73
2021/08/20 02:14:53;;;;;;;8.13;4.80;;;;;;;16.17;100.00;95893.66;1045126;28;20025;-73
2021/08/20 02:15:23;;;;;;;6.70;4.50;;;;;;;16.18;100.00;95893.38;1045080;28;20366;-72
2021/08/20 02:15:54;;;;;;;6.93;4.73;;;;;;;16.21;100.00;95886.56;1045089;28;20025;-73
2021/08/20 02:16:24;;;;;;;7.40;4.50;;;;;;;16.22;100.00;95888.13;1044689;28;20029;-74
2021/08/20 02:16:55;;;;;;;12.07;5.10;;;;;;;16.23;100.00;95892.44;1040682;28;20018;-73
2021/08/20 02:17:25;;;;;;;7.53;4.80;;;;;;;16.24;100.00;95888.66;1036267;28;20463;-74
2021/08/20 02:17:56;;;;;;;6.87;4.53;;;;;;;16.26;100.00;95891.81;1040702;28;20057;-73
2021/08/20 02:18:27;;;;;;;8.13;5.00;;;;;;;16.23;100.00;95890.53;1040832;28;20025;-73
2021/08/20 02:18:57;;;;;;;6.83;4.17;;;;;;;16.23;100.00;95893.25;1040695;28;20026;-73
2021/08/20 02:19:27;;;;;;;7.13;4.37;;;;;;;16.25;100.00;95887.53;1044635;28;20013;-73
2021/08/20 02:19:58;;;;;;;11.63;5.20;;;;;;;16.25;100.00;95887.53;1036664;28;20372;-73
2021/08/20 02:20:28;;;;;;;7.97;4.40;;;;;;;16.26;100.00;95889.13;1040550;28;20029;-73
2021/08/20 02:20:59;;;;;;;9.00;4.90;;;;;;;16.27;100.00;95882.63;1044758;28;20021;-73
2021/08/20 02:21:29;;;;;;;6.07;4.33;;;;;;;16.28;100.00;95886.94;1040632;28;20104;-73
2021/08/20 02:22:00;;;;;;;7.40;4.67;;;;;;;16.27;100.00;95885.31;1044728;28;20490;-73
2021/08/20 02:22:30;;;;;;;6.10;4.40;;;;;;;16.29;100.00;95885.81;1044696;28;20017;-73
2021/08/20 02:23:00;;;;;;;9.03;4.70;;;;;;;16.29;100.00;95881.22;1044675;28;20496;-73
2021/08/20 02:23:32;;;;;;;7.13;4.40;;;;;;;16.30;100.00;95882.00;1044979;28;20013;-73